createdAt,value
2022-10-23T00:01:58.576Z,84.18
2022-10-23T00:04:26.597Z,84.79
2022-10-23T00:06:54.257Z,84.45
2022-10-23T00:09:23.509Z,84.24
2022-10-23T00:11:52.070Z,84.77
2022-10-23T00:14:23.178Z,84.54
2022-10-23T00:16:50.656Z,85.06
2022-10-23T00:19:18.283Z,85.13
2022-10-23T00:21:45.724Z,84.47
2022-10-23T00:24:13.203Z,84.63
2022-10-23T00:26:40.825Z,84.72
2022-10-23T00:29:09.340Z,85.15
2022-10-23T00:31:38.339Z,84.91
2022-10-23T00:34:08.594Z,85.29
2022-10-23T00:36:36.251Z,85.18
2022-10-23T00:39:03.903Z,84.82
2022-10-23T00:41:32.691Z,84.65
2022-10-23T00:44:07.549Z,84.25
2022-10-23T00:46:35.768Z,85.20
2022-10-23T00:49:05.638Z,84.58
2022-10-23T00:51:37.122Z,84.62
2022-10-23T00:54:24.032Z,85.07
2022-10-23T00:56:55.321Z,84.19
2022-10-23T00:59:22.630Z,84.72
2022-10-23T01:01:50.320Z,84.52
2022-10-23T01:04:19.407Z,84.77
2022-10-23T01:06:56.080Z,84.24
2022-10-23T01:09:29.579Z,84.47
2022-10-23T01:12:01.112Z,84.57
2022-10-23T01:14:33.422Z,84.57
2022-10-23T01:17:06.274Z,84.46
2022-10-23T01:19:50.485Z,84.75
2022-10-23T01:22:37.899Z,84.38
2022-10-23T01:25:19.635Z,84.47
2022-10-23T01:27:53.916Z,84.65
2022-10-23T01:30:21.641Z,85.26
2022-10-23T01:32:54.169Z,84.58
2022-10-23T01:35:29.002Z,84.88
2022-10-23T01:38:06.746Z,84.70
2022-10-23T01:40:37.730Z,84.87
2022-10-23T01:43:12.177Z,85.02
2022-10-23T01:45:43.309Z,85.01
2022-10-23T01:48:19.682Z,85.55
2022-10-23T01:50:49.283Z,85.77
2022-10-23T01:53:17.526Z,86.08
2022-10-23T01:55:47.255Z,86.04
2022-10-23T01:58:23.393Z,85.80
2022-10-23T02:00:52.945Z,85.76
2022-10-23T02:03:21.645Z,85.96
2022-10-23T02:05:49.423Z,86.54
2022-10-23T02:08:16.835Z,86.42
2022-10-23T02:10:50.103Z,86.89
2022-10-23T02:13:28.715Z,86.98
2022-10-23T02:16:03.713Z,87.15
2022-10-23T02:18:38.178Z,86.83
2022-10-23T02:21:10.914Z,86.79
2022-10-23T02:23:40.359Z,86.97
2022-10-23T02:26:13.337Z,87.31
2022-10-23T02:28:47.403Z,87.41
2022-10-23T02:31:18.064Z,87.62
2022-10-23T02:33:47.340Z,87.62
2022-10-23T02:36:15.699Z,87.95
2022-10-23T02:38:45.125Z,87.93
2022-10-23T02:41:23.202Z,88.40
2022-10-23T02:44:03.564Z,88.34
2022-10-23T02:46:40.123Z,88.65
2022-10-23T02:49:13.611Z,89.13
2022-10-23T02:51:52.234Z,87.98
2022-10-23T02:54:37.222Z,88.82
2022-10-23T02:57:12.221Z,88.66
2022-10-23T02:59:47.468Z,88.99
2022-10-23T03:02:21.360Z,89.54
2022-10-23T03:04:50.950Z,88.57
2022-10-23T03:07:19.935Z,89.59
2022-10-23T03:09:47.781Z,89.82
2022-10-23T03:12:15.413Z,89.64
2022-10-23T03:14:44.149Z,90.06
2022-10-23T03:17:11.505Z,90.25
2022-10-23T03:19:38.889Z,90.29
2022-10-23T03:22:06.330Z,90.53
2022-10-23T03:24:33.615Z,90.18
2022-10-23T03:27:00.899Z,89.80
2022-10-23T03:29:32.864Z,89.66
2022-10-23T03:32:01.704Z,89.61
2022-10-23T03:34:29.053Z,90.56
2022-10-23T03:36:56.514Z,90.47
2022-10-23T03:39:23.796Z,90.01
2022-10-23T03:42:09.833Z,89.97
2022-10-23T03:44:37.225Z,90.46
2022-10-23T03:47:06.344Z,90.63
2022-10-23T03:49:33.529Z,90.70
2022-10-23T03:52:05.601Z,90.96
2022-10-23T03:54:33.938Z,90.04
2022-10-23T03:57:01.958Z,90.80
2022-10-23T03:59:29.367Z,90.80
2022-10-23T04:01:56.855Z,90.63
2022-10-23T04:04:26.713Z,90.69
2022-10-23T04:06:54.264Z,90.85
2022-10-23T04:09:22.213Z,91.13
2022-10-23T04:11:49.576Z,90.82
2022-10-23T04:14:17.495Z,90.43
2022-10-23T04:16:44.749Z,90.95
2022-10-23T04:19:12.123Z,91.05
2022-10-23T04:21:40.747Z,91.10
2022-10-23T04:24:08.282Z,90.99
2022-10-23T04:26:35.527Z,91.27
2022-10-23T04:29:02.858Z,91.23
2022-10-23T04:31:30.455Z,91.01
2022-10-23T04:33:57.927Z,90.98
2022-10-23T04:36:36.253Z,91.13
2022-10-23T04:39:14.749Z,90.62
2022-10-23T04:41:42.116Z,90.56
2022-10-23T04:44:09.335Z,90.88
2022-10-23T04:46:39.711Z,91.04
2022-10-23T04:49:07.109Z,91.58
2022-10-23T04:51:59.778Z,90.99
2022-10-23T04:54:40.733Z,91.63
2022-10-23T04:57:28.243Z,91.76
2022-10-23T05:00:01.656Z,91.37
2022-10-23T05:02:35.514Z,91.35
2022-10-23T05:05:03.794Z,91.42
2022-10-23T05:07:34.164Z,91.18
2022-10-23T05:10:29.787Z,91.71
2022-10-23T05:13:06.213Z,91.70
2022-10-23T05:15:33.783Z,91.46
2022-10-23T05:18:08.954Z,92.07
2022-10-23T05:20:38.073Z,91.08
2022-10-23T05:23:09.630Z,91.61
2022-10-23T05:25:38.436Z,91.58
2022-10-23T05:28:14.896Z,91.17
2022-10-23T05:30:42.997Z,91.19
2022-10-23T05:33:11.659Z,91.70
2022-10-23T05:35:43.913Z,91.49
2022-10-23T05:38:13.483Z,90.77
2022-10-23T05:40:42.759Z,91.03
2022-10-23T05:43:15.270Z,90.92
2022-10-23T05:45:59.419Z,91.10
2022-10-23T05:48:45.794Z,90.17
2022-10-23T05:51:18.054Z,91.14
2022-10-23T05:53:55.575Z,90.67
2022-10-23T05:56:48.364Z,90.16
2022-10-23T05:59:23.066Z,90.31
2022-10-23T06:01:50.872Z,90.47
2022-10-23T06:04:40.857Z,90.87
2022-10-23T06:07:11.390Z,90.87
2022-10-23T06:09:39.136Z,90.98
2022-10-23T06:12:08.693Z,90.81
2022-10-23T06:14:35.878Z,90.19
2022-10-23T06:17:03.752Z,90.12
2022-10-23T06:19:32.703Z,89.95
2022-10-23T06:21:59.956Z,89.86
2022-10-23T06:24:44.057Z,89.90
2022-10-23T06:27:15.271Z,90.77
2022-10-23T06:29:44.391Z,89.88
2022-10-23T06:32:12.306Z,90.36
2022-10-23T06:34:41.774Z,89.84
2022-10-23T06:37:09.759Z,90.10
2022-10-23T06:39:50.160Z,90.06
2022-10-23T06:42:29.566Z,89.52
2022-10-23T06:44:57.189Z,90.06
2022-10-23T06:47:43.582Z,90.30
2022-10-23T06:50:31.231Z,90.39
2022-10-23T06:53:00.764Z,89.60
2022-10-23T06:55:30.300Z,90.54
2022-10-23T06:57:59.474Z,89.64
2022-10-23T07:00:27.006Z,90.31
2022-10-23T07:02:55.286Z,89.89
2022-10-23T07:05:23.311Z,89.97
2022-10-23T07:07:51.056Z,89.86
2022-10-23T07:10:24.785Z,89.31
2022-10-23T07:13:01.147Z,90.02
2022-10-23T07:15:40.921Z,89.99
2022-10-23T07:18:14.711Z,90.05
2022-10-23T07:21:00.525Z,90.23
2022-10-23T07:23:29.777Z,90.38
2022-10-23T07:26:02.378Z,89.91
2022-10-23T07:28:31.444Z,88.96
2022-10-23T07:30:59.855Z,89.99
2022-10-23T07:33:42.826Z,89.74
2022-10-23T07:36:17.118Z,89.67
2022-10-23T07:38:45.118Z,89.52
2022-10-23T07:41:13.257Z,89.78
2022-10-23T07:43:41.995Z,89.40
2022-10-23T07:46:10.050Z,89.56
2022-10-23T07:48:40.391Z,89.74
2022-10-23T07:51:11.188Z,89.71
2022-10-23T07:53:47.552Z,89.74
2022-10-23T07:56:38.381Z,89.39
2022-10-23T07:59:19.186Z,88.98
2022-10-23T08:01:55.951Z,89.72
2022-10-23T08:04:28.224Z,89.73
2022-10-23T08:07:02.255Z,89.53
2022-10-23T08:09:38.150Z,89.27
2022-10-23T08:12:06.140Z,89.81
2022-10-23T08:14:34.866Z,90.16
2022-10-23T08:20:13.824Z,89.28
2022-10-23T08:22:43.767Z,88.81
2022-10-23T08:25:13.470Z,89.40
2022-10-23T08:27:41.116Z,89.61
2022-10-23T08:30:12.101Z,88.61
2022-10-23T08:32:39.570Z,89.10
2022-10-23T08:35:07.544Z,88.88
2022-10-23T08:37:34.778Z,89.81
2022-10-23T08:40:03.402Z,89.42
2022-10-23T08:43:01.566Z,89.83
2022-10-23T08:45:40.610Z,89.06
2022-10-23T08:48:18.803Z,89.85
2022-10-23T08:51:19.957Z,88.79
2022-10-23T08:53:52.874Z,89.29
2022-10-23T08:56:28.235Z,88.77
2022-10-23T08:59:00.470Z,89.27
2022-10-23T09:01:37.871Z,88.24
2022-10-23T09:04:05.551Z,88.44
2022-10-23T09:06:38.918Z,88.63
2022-10-23T09:09:40.005Z,88.90
2022-10-23T09:12:11.619Z,88.66
2022-10-23T09:15:03.414Z,88.81
2022-10-23T09:17:34.643Z,89.34
2022-10-23T09:20:13.053Z,89.50
2022-10-23T09:22:42.134Z,89.40
2022-10-23T09:25:11.050Z,89.02
2022-10-23T09:27:46.160Z,89.46
2022-10-23T09:30:24.746Z,88.96
2022-10-23T09:32:53.520Z,89.51
2022-10-23T09:35:22.658Z,89.32
2022-10-23T09:37:53.299Z,89.09
2022-10-23T09:40:29.974Z,89.13
2022-10-23T09:43:00.090Z,89.53
2022-10-23T09:45:31.387Z,89.17
2022-10-23T09:48:22.045Z,88.94
2022-10-23T09:50:51.878Z,89.06
2022-10-23T09:53:25.306Z,89.61
2022-10-23T09:55:54.466Z,89.63
2022-10-23T09:58:27.817Z,89.43
2022-10-23T10:00:55.497Z,89.74
2022-10-23T10:03:49.343Z,90.48
2022-10-23T10:06:23.799Z,89.61
2022-10-23T10:08:54.725Z,90.51
2022-10-23T10:11:28.185Z,90.21
2022-10-23T10:14:04.742Z,90.39
2022-10-23T10:16:42.783Z,90.07
2022-10-23T10:19:32.315Z,90.70
2022-10-23T10:22:09.041Z,89.92
2022-10-23T10:24:45.425Z,90.08
2022-10-23T10:27:22.853Z,90.69
2022-10-23T10:30:03.722Z,89.84
2022-10-23T10:32:38.954Z,90.91
2022-10-23T10:35:20.931Z,90.81
2022-10-23T10:38:03.171Z,90.79
2022-10-23T10:40:33.585Z,90.24
2022-10-23T10:43:24.578Z,90.74
2022-10-23T10:46:00.584Z,90.46
2022-10-23T10:48:41.422Z,90.89
2022-10-23T10:51:36.488Z,90.64
2022-10-23T10:54:30.819Z,90.47
2022-10-23T10:57:02.496Z,90.93
2022-10-23T10:59:32.255Z,90.85
2022-10-23T11:02:05.882Z,91.01
2022-10-23T11:04:39.717Z,91.06
2022-10-23T11:07:13.706Z,91.05
2022-10-23T11:09:43.355Z,91.40
2022-10-23T11:12:18.823Z,91.29
2022-10-23T11:14:46.486Z,91.89
2022-10-23T11:17:19.197Z,92.07
2022-10-23T11:19:49.798Z,91.83
2022-10-23T11:22:26.368Z,92.17
2022-10-23T11:25:22.299Z,91.53
2022-10-23T11:28:07.190Z,91.60
2022-10-23T11:30:48.775Z,92.15
2022-10-23T11:33:52.152Z,92.32
2022-10-23T11:36:40.194Z,91.95
2022-10-23T11:39:19.072Z,92.40
2022-10-23T11:41:52.661Z,93.01
2022-10-23T11:44:26.885Z,92.97
2022-10-23T11:47:02.480Z,92.85
2022-10-23T11:49:29.795Z,92.75
2022-10-23T11:52:01.257Z,93.06
2022-10-23T11:54:30.231Z,92.36
2022-10-23T11:57:12.997Z,92.54
2022-10-23T11:59:52.711Z,92.69
2022-10-23T12:02:26.978Z,92.80
2022-10-23T12:04:55.185Z,92.34
2022-10-23T12:07:27.024Z,92.69
2022-10-23T12:09:58.207Z,93.16
2022-10-23T12:12:32.335Z,92.88
2022-10-23T12:15:26.304Z,92.65
2022-10-23T12:17:55.999Z,92.89
2022-10-23T12:20:38.260Z,93.06
2022-10-23T12:23:47.281Z,92.84
2022-10-23T12:26:54.376Z,93.06
2022-10-23T12:29:32.924Z,92.79
2022-10-23T12:32:16.580Z,92.70
2022-10-23T12:34:50.697Z,92.86
2022-10-23T12:37:49.647Z,93.15
2022-10-23T12:40:16.891Z,92.78
2022-10-23T12:42:53.119Z,92.88
2022-10-23T12:45:24.142Z,93.35
2022-10-23T12:47:52.732Z,93.61
2022-10-23T12:50:22.190Z,93.64
2022-10-23T12:52:54.086Z,93.16
2022-10-23T12:55:22.224Z,93.09
2022-10-23T12:57:51.491Z,93.61
2022-10-23T13:00:21.935Z,93.69
2022-10-23T13:02:58.650Z,93.79
2022-10-23T13:05:26.936Z,93.36
2022-10-23T13:07:54.881Z,94.39
2022-10-23T13:10:33.462Z,93.61
2022-10-23T13:13:13.022Z,94.34
2022-10-23T13:15:42.286Z,94.29
2022-10-23T13:18:11.474Z,94.82
2022-10-23T13:20:41.499Z,94.05
2022-10-23T13:23:18.876Z,94.10
2022-10-23T13:25:54.788Z,94.81
2022-10-23T13:28:26.135Z,94.37
2022-10-23T13:31:06.269Z,95.12
2022-10-23T13:33:37.267Z,94.96
2022-10-23T13:36:07.745Z,94.82
2022-10-23T13:38:37.096Z,95.11
2022-10-23T13:41:11.796Z,95.37
2022-10-23T13:43:41.234Z,95.62
2022-10-23T13:46:14.104Z,94.98
2022-10-23T13:48:41.312Z,95.07
2022-10-23T13:51:13.484Z,94.78
2022-10-23T13:53:40.749Z,95.23
2022-10-23T13:56:11.363Z,95.06
2022-10-23T13:58:40.236Z,95.82
2022-10-23T14:01:22.499Z,95.19
2022-10-23T14:03:49.885Z,95.59
2022-10-23T14:06:17.777Z,95.78
2022-10-23T14:08:45.305Z,95.76
2022-10-23T14:13:44.193Z,95.57
2022-10-23T14:16:13.475Z,95.55
2022-10-23T14:18:40.974Z,95.80
2022-10-23T14:21:10.385Z,95.01
2022-10-23T14:23:37.678Z,95.01
2022-10-23T14:26:06.177Z,95.24
2022-10-23T14:28:34.103Z,94.98
2022-10-23T14:31:05.823Z,94.76
2022-10-23T14:33:33.454Z,94.84
2022-10-23T14:36:00.845Z,95.55
2022-10-23T14:38:28.471Z,95.25
2022-10-23T14:40:55.702Z,95.10
2022-10-23T14:43:23.642Z,95.74
2022-10-23T14:45:51.163Z,95.51
2022-10-23T14:48:19.933Z,95.37
2022-10-23T14:50:49.004Z,96.22
2022-10-23T14:53:16.683Z,95.45
2022-10-23T14:55:43.882Z,95.68
2022-10-23T14:58:11.130Z,95.98
2022-10-23T15:00:39.579Z,96.06
2022-10-23T15:03:06.811Z,95.92
2022-10-23T15:05:35.441Z,95.87
2022-10-23T15:08:02.738Z,96.00
2022-10-23T15:10:30.103Z,95.90
2022-10-23T15:12:57.290Z,95.64
2022-10-23T15:15:24.753Z,95.68
2022-10-23T15:17:52.085Z,95.68
2022-10-23T15:20:19.315Z,95.64
2022-10-23T15:22:47.927Z,95.50
2022-10-23T15:25:17.910Z,95.38
2022-10-23T15:27:45.733Z,95.47
2022-10-23T15:30:13.391Z,95.54
2022-10-23T15:32:41.313Z,95.86
2022-10-23T15:35:08.837Z,95.29
2022-10-23T15:37:36.518Z,95.17
2022-10-23T15:40:05.786Z,95.90
2022-10-23T15:42:33.054Z,95.63
2022-10-23T15:45:00.342Z,95.89
2022-10-23T15:47:27.693Z,95.47
2022-10-23T15:49:54.929Z,96.24
2022-10-23T15:52:22.444Z,95.74
2022-10-23T15:54:50.165Z,95.91
2022-10-23T15:57:18.771Z,96.07
2022-10-23T15:59:46.404Z,96.20
2022-10-23T16:02:13.911Z,96.18
2022-10-23T16:04:41.398Z,96.19
2022-10-23T16:07:09.067Z,96.02
2022-10-23T16:09:37.447Z,95.72
2022-10-23T16:12:05.207Z,95.86
2022-10-23T16:14:33.901Z,96.14
2022-10-23T16:17:01.053Z,95.83
2022-10-23T16:19:28.346Z,95.95
2022-10-23T16:21:55.656Z,95.51
2022-10-23T16:24:22.958Z,96.19
2022-10-23T16:26:53.344Z,96.09
2022-10-23T16:29:22.218Z,95.85
2022-10-23T16:31:51.178Z,96.11
2022-10-23T16:34:18.623Z,95.73
2022-10-23T16:36:47.090Z,95.92
2022-10-23T16:39:16.477Z,95.97
2022-10-23T16:42:12.854Z,95.94
2022-10-23T16:44:54.486Z,95.54
2022-10-23T16:47:23.327Z,95.04
2022-10-23T16:49:50.565Z,95.89
2022-10-23T16:52:17.971Z,96.00
2022-10-23T16:54:45.435Z,95.63
2022-10-23T16:57:12.657Z,95.93
2022-10-23T16:59:40.205Z,95.77
2022-10-23T17:02:08.232Z,95.66
2022-10-23T17:04:37.916Z,95.17
2022-10-23T17:07:06.154Z,95.66
2022-10-23T17:09:33.946Z,95.13
2022-10-23T17:12:01.482Z,95.42
2022-10-23T17:14:31.947Z,95.73
2022-10-23T17:17:01.750Z,95.15
2022-10-23T17:19:47.050Z,95.50
2022-10-23T17:22:16.157Z,95.31
2022-10-23T17:24:46.289Z,95.31
2022-10-23T17:27:16.441Z,95.26
2022-10-23T17:29:43.676Z,95.30
2022-10-23T17:32:11.151Z,95.30
2022-10-23T17:34:38.531Z,95.09
2022-10-23T17:37:05.968Z,94.95
2022-10-23T17:39:34.721Z,94.93
2022-10-23T17:42:02.123Z,95.54
2022-10-23T17:44:29.375Z,95.35
2022-10-23T17:46:56.883Z,95.44
2022-10-23T17:49:25.169Z,95.13
2022-10-23T17:51:54.200Z,95.38
2022-10-23T17:54:22.492Z,95.17
2022-10-23T17:56:51.390Z,95.32
2022-10-23T17:59:21.940Z,95.10
2022-10-23T18:01:49.932Z,95.30
2022-10-23T18:04:19.319Z,94.93
2022-10-23T18:06:49.387Z,95.05
2022-10-23T18:09:17.450Z,95.17
2022-10-23T18:11:48.244Z,94.97
2022-10-23T18:14:17.963Z,95.22
2022-10-23T18:16:46.101Z,95.51
2022-10-23T18:19:14.073Z,95.90
2022-10-23T18:21:41.479Z,95.43
2022-10-23T18:24:08.835Z,95.44
2022-10-23T18:26:39.336Z,96.29
2022-10-23T18:29:08.630Z,95.88
2022-10-23T18:31:37.664Z,96.49
2022-10-23T18:34:07.738Z,96.11
2022-10-23T18:36:37.344Z,95.76
2022-10-23T18:39:05.847Z,95.73
2022-10-23T18:41:34.181Z,95.69
2022-10-23T18:44:01.538Z,96.08
2022-10-23T18:46:29.234Z,95.94
2022-10-23T18:48:58.252Z,95.79
2022-10-23T18:51:27.765Z,96.29
2022-10-23T18:53:55.441Z,95.50
2022-10-23T18:56:26.104Z,95.85
2022-10-23T18:58:55.056Z,96.33
2022-10-23T19:01:23.877Z,95.87
2022-10-23T19:03:51.421Z,96.32
2022-10-23T19:06:21.298Z,95.82
2022-10-23T19:08:49.119Z,95.76
2022-10-23T19:11:18.644Z,95.46
2022-10-23T19:13:46.007Z,95.51
2022-10-23T19:16:19.606Z,95.81
2022-10-23T19:18:50.663Z,95.83
2022-10-23T19:21:20.348Z,95.91
2022-10-23T19:23:49.824Z,95.84
2022-10-23T19:26:17.656Z,95.70
2022-10-23T19:28:47.337Z,96.11
2022-10-23T19:31:14.849Z,96.42
2022-10-23T19:33:42.066Z,95.87
2022-10-23T19:36:13.935Z,96.27
2022-10-23T19:38:41.885Z,95.71
2022-10-23T19:41:11.579Z,95.76
2022-10-23T19:43:39.172Z,96.23
2022-10-23T19:46:10.951Z,96.00
2022-10-23T19:48:44.618Z,96.55
2022-10-23T19:51:13.490Z,95.66
2022-10-23T19:53:42.119Z,96.16
2022-10-23T19:56:12.462Z,95.71
2022-10-23T19:58:40.724Z,96.06
2022-10-23T20:01:12.727Z,95.84
2022-10-23T20:03:41.235Z,96.14
2022-10-23T20:06:10.210Z,95.87
2022-10-23T20:08:37.518Z,96.35
2022-10-23T20:11:05.207Z,95.60
2022-10-23T20:13:33.899Z,96.03
2022-10-23T20:16:01.058Z,95.62
2022-10-23T20:18:28.610Z,95.40
2022-10-23T20:20:55.954Z,96.05
2022-10-23T20:23:23.257Z,96.33
2022-10-23T20:25:50.498Z,96.09
2022-10-23T20:28:18.314Z,95.72
2022-10-23T20:30:46.960Z,95.84
2022-10-23T20:33:14.422Z,96.15
2022-10-23T20:35:42.543Z,96.01
2022-10-23T20:38:10.296Z,95.81
2022-10-23T20:40:38.321Z,95.74
2022-10-23T20:43:05.887Z,95.77
2022-10-23T20:45:34.092Z,96.38
2022-10-23T20:48:02.804Z,95.61
2022-10-23T20:50:30.115Z,96.02
2022-10-23T20:52:57.446Z,95.67
2022-10-23T20:55:24.836Z,95.79
2022-10-23T20:57:52.096Z,95.35
2022-10-23T21:00:22.059Z,95.18
2022-10-23T21:02:52.084Z,95.92
2022-10-23T21:05:21.115Z,96.07
2022-10-23T21:07:48.280Z,96.02
2022-10-23T21:10:15.516Z,96.05
2022-10-23T21:12:43.080Z,96.12
2022-10-23T21:15:10.671Z,95.92
2022-10-23T21:17:40.714Z,95.50
2022-10-23T21:20:08.509Z,95.32
2022-10-23T21:22:37.101Z,96.06
2022-10-23T21:25:04.931Z,95.79
2022-10-23T21:27:32.385Z,95.90
2022-10-23T21:29:59.688Z,96.00
2022-10-23T21:32:26.995Z,95.83
2022-10-23T21:34:55.229Z,95.86
2022-10-23T21:37:25.077Z,95.62
2022-10-23T21:39:53.782Z,95.23
2022-10-23T21:42:21.270Z,95.20
2022-10-23T21:44:48.600Z,95.01
2022-10-23T21:47:15.927Z,95.48
2022-10-23T21:49:43.236Z,95.24
2022-10-23T21:52:10.508Z,95.18
2022-10-23T21:54:37.890Z,94.98
2022-10-23T21:57:13.908Z,94.92
2022-10-23T21:59:41.171Z,94.85
2022-10-23T22:02:09.514Z,94.89
2022-10-23T22:04:37.970Z,94.82
2022-10-23T22:07:06.269Z,94.88
2022-10-23T22:09:34.297Z,94.59
2022-10-23T22:12:01.635Z,94.34
2022-10-23T22:14:30.395Z,94.64
2022-10-23T22:16:57.932Z,94.56
2022-10-23T22:19:25.634Z,94.73
2022-10-23T22:21:52.878Z,94.29
2022-10-23T22:24:20.578Z,94.54
2022-10-23T22:26:49.811Z,94.67
2022-10-23T22:29:19.649Z,94.22
2022-10-23T22:31:50.088Z,94.58
2022-10-23T22:34:27.155Z,93.97
2022-10-23T22:37:07.384Z,94.00
2022-10-23T22:39:34.550Z,94.40
2022-10-23T22:42:01.987Z,94.22
2022-10-23T22:44:29.375Z,94.38
2022-10-23T22:46:58.108Z,94.35
2022-10-23T22:49:25.489Z,93.86
2022-10-23T22:51:52.715Z,93.92
2022-10-23T22:54:20.198Z,94.13
2022-10-23T22:56:47.482Z,94.31
2022-10-23T22:59:14.669Z,94.21
2022-10-23T23:01:43.813Z,93.69
2022-10-23T23:04:32.936Z,94.19
2022-10-23T23:07:00.992Z,94.11
2022-10-23T23:09:28.537Z,93.45
2022-10-23T23:11:55.725Z,94.11
2022-10-23T23:14:24.437Z,93.51
2022-10-23T23:16:52.141Z,94.06
2022-10-23T23:19:23.055Z,94.10
2022-10-23T23:21:50.431Z,93.75
2022-10-23T23:24:17.893Z,93.79
2022-10-23T23:26:45.111Z,93.78
2022-10-23T23:29:12.925Z,93.64
2022-10-23T23:31:40.440Z,93.55
2022-10-23T23:34:07.663Z,94.01
2022-10-23T23:36:36.358Z,93.53
2022-10-23T23:41:37.638Z,93.97
2022-10-23T23:44:05.229Z,93.71
2022-10-23T23:46:32.459Z,94.05
2022-10-23T23:48:59.821Z,93.53
2022-10-23T23:51:27.183Z,93.71
2022-10-23T23:53:55.931Z,93.52
2022-10-23T23:56:23.270Z,93.85
2022-10-23T23:58:50.499Z,93.80
